createdAt,value
2022-12-20T00:00:02.233Z,47.20
2022-12-20T00:01:02.220Z,43.60
2022-12-20T00:02:02.323Z,46.10
2022-12-20T00:03:02.234Z,45.40
2022-12-20T00:04:02.228Z,39.20
2022-12-20T00:05:02.229Z,43.00
2022-12-20T00:06:02.204Z,40.90
2022-12-20T00:07:02.240Z,42.80
2022-12-20T00:08:02.168Z,41.90
2022-12-20T00:09:02.160Z,39.70
2022-12-20T00:10:02.200Z,39.40
2022-12-20T00:11:02.164Z,40.10
2022-12-20T00:12:02.165Z,39.00
2022-12-20T00:13:02.176Z,41.50
2022-12-20T00:14:02.181Z,40.70
2022-12-20T00:15:02.139Z,39.00
2022-12-20T00:16:02.150Z,40.10
2022-12-20T00:17:02.119Z,42.00
2022-12-20T00:18:02.180Z,46.30
2022-12-20T00:19:02.159Z,41.40
2022-12-20T00:20:02.090Z,39.30
2022-12-20T00:21:02.088Z,39.80
2022-12-20T00:22:02.134Z,37.90
2022-12-20T00:23:02.099Z,43.80
2022-12-20T00:24:02.094Z,41.60
2022-12-20T00:25:02.097Z,38.70
2022-12-20T00:26:02.059Z,38.50
2022-12-20T00:27:02.051Z,37.40
2022-12-20T00:28:02.103Z,39.10
2022-12-20T00:29:02.056Z,39.20
2022-12-20T00:30:02.040Z,42.20
2022-12-20T00:31:02.136Z,42.30
2022-12-20T00:32:02.146Z,43.00
2022-12-20T00:33:02.067Z,41.80
2022-12-20T00:34:02.071Z,36.90
2022-12-20T00:35:02.068Z,38.70
2022-12-20T00:36:01.990Z,37.60
2022-12-20T00:37:01.984Z,44.30
2022-12-20T00:38:02.052Z,41.50
2022-12-20T00:39:01.988Z,35.50
2022-12-20T00:40:02.038Z,37.10
2022-12-20T00:41:02.009Z,37.00
2022-12-20T00:42:01.970Z,39.10
2022-12-20T00:43:01.949Z,42.30
2022-12-20T00:44:01.996Z,43.70
2022-12-20T00:45:01.952Z,43.30
2022-12-20T00:46:01.957Z,38.00
2022-12-20T00:47:02.066Z,40.50
2022-12-20T00:48:01.927Z,38.10
2022-12-20T00:49:01.975Z,40.80
2022-12-20T00:50:01.972Z,38.90
2022-12-20T00:51:01.953Z,38.70
2022-12-20T00:52:01.893Z,38.30
2022-12-20T00:53:01.949Z,38.50
2022-12-20T00:54:01.887Z,43.10
2022-12-20T00:55:01.885Z,38.70
2022-12-20T00:56:01.926Z,40.70
2022-12-20T00:57:01.871Z,40.00
2022-12-20T00:58:01.866Z,39.70
2022-12-20T00:59:01.896Z,40.90
2022-12-20T01:00:01.851Z,40.10
2022-12-20T01:01:01.947Z,41.90
2022-12-20T01:02:02.245Z,41.40
2022-12-20T01:03:02.978Z,42.50
2022-12-20T01:04:01.812Z,40.20
2022-12-20T01:05:01.898Z,40.50
2022-12-20T01:06:01.816Z,42.40
2022-12-20T01:07:01.810Z,42.60
2022-12-20T01:08:01.821Z,42.40
2022-12-20T01:09:01.795Z,45.90
2022-12-20T01:10:01.802Z,49.40
2022-12-20T01:11:01.824Z,46.50
2022-12-20T01:12:01.779Z,48.30
2022-12-20T01:13:01.770Z,47.10
2022-12-20T01:14:01.820Z,50.90
2022-12-20T01:15:01.776Z,40.00
2022-12-20T01:16:01.821Z,39.90
2022-12-20T01:17:01.854Z,43.60
2022-12-20T01:18:01.767Z,44.00
2022-12-20T01:19:01.728Z,43.50
2022-12-20T01:20:01.798Z,49.30
2022-12-20T01:21:01.727Z,52.80
2022-12-20T01:22:01.734Z,52.70
2022-12-20T01:23:01.743Z,52.60
2022-12-20T01:24:01.719Z,38.00
2022-12-20T01:25:01.702Z,36.30
2022-12-20T01:26:01.754Z,48.60
2022-12-20T01:27:01.731Z,41.70
2022-12-20T01:28:01.706Z,46.90
2022-12-20T01:29:01.741Z,40.90
2022-12-20T01:30:01.673Z,56.80
2022-12-20T01:31:01.668Z,51.60
2022-12-20T01:32:01.992Z,44.20
2022-12-20T01:33:01.671Z,49.70
2022-12-20T01:34:01.651Z,59.10
2022-12-20T01:35:01.681Z,53.80
2022-12-20T01:36:01.642Z,55.60
2022-12-20T01:37:01.665Z,50.50
2022-12-20T01:38:01.707Z,45.30
2022-12-20T01:39:01.619Z,54.00
2022-12-20T01:40:01.607Z,51.90
2022-12-20T01:41:01.652Z,40.90
2022-12-20T01:42:01.610Z,43.60
2022-12-20T01:43:01.582Z,46.60
2022-12-20T01:44:01.640Z,44.60
2022-12-20T01:45:01.572Z,41.10
2022-12-20T01:46:01.654Z,53.50
2022-12-20T01:47:01.655Z,45.00
2022-12-20T01:48:01.555Z,49.00
2022-12-20T01:49:01.573Z,60.60
2022-12-20T01:50:01.587Z,55.80
2022-12-20T01:51:01.537Z,52.90
2022-12-20T01:52:01.530Z,52.90
2022-12-20T01:53:01.579Z,51.10
2022-12-20T01:54:01.519Z,53.10
2022-12-20T01:55:01.503Z,51.90
2022-12-20T01:56:01.534Z,47.20
2022-12-20T01:57:02.496Z,50.20
2022-12-20T01:58:01.485Z,49.80
2022-12-20T01:59:01.553Z,38.50
2022-12-20T02:00:01.491Z,51.00
2022-12-20T02:01:01.535Z,41.00
2022-12-20T02:02:01.663Z,43.50
2022-12-20T02:03:01.644Z,45.00
2022-12-20T02:04:01.469Z,49.80
2022-12-20T02:05:01.516Z,46.70
2022-12-20T02:06:01.458Z,43.00
2022-12-20T02:07:01.460Z,41.60
2022-12-20T02:08:01.488Z,38.50
2022-12-20T02:09:01.429Z,48.50
2022-12-20T02:10:01.453Z,46.90
2022-12-20T02:11:01.484Z,52.80
2022-12-20T02:12:01.413Z,41.90
2022-12-20T02:13:01.410Z,42.80
2022-12-20T02:14:01.428Z,43.50
2022-12-20T02:15:01.420Z,43.90
2022-12-20T02:16:01.389Z,39.20
2022-12-20T02:17:01.451Z,43.30
2022-12-20T02:18:01.365Z,42.40
2022-12-20T02:19:01.364Z,42.10
2022-12-20T02:20:01.396Z,43.50
2022-12-20T02:21:01.371Z,39.70
2022-12-20T02:22:02.328Z,41.00
2022-12-20T02:23:02.392Z,38.90
2022-12-20T02:24:01.322Z,39.80
2022-12-20T02:25:01.372Z,30.70
2022-12-20T02:26:01.347Z,30.90
2022-12-20T02:27:01.335Z,30.40
2022-12-20T02:28:01.310Z,32.30
2022-12-20T02:29:01.301Z,35.40
2022-12-20T02:30:01.327Z,35.10
2022-12-20T02:31:01.322Z,35.70
2022-12-20T02:32:01.455Z,33.70
2022-12-20T02:33:01.323Z,33.60
2022-12-20T02:34:01.287Z,36.20
2022-12-20T02:35:01.264Z,34.60
2022-12-20T02:36:01.299Z,36.40
2022-12-20T02:37:01.300Z,36.70
2022-12-20T02:38:01.245Z,37.90
2022-12-20T02:39:01.274Z,37.80
2022-12-20T02:40:01.228Z,40.70
2022-12-20T02:41:02.240Z,37.70
2022-12-20T02:42:01.306Z,38.60
2022-12-20T02:43:01.236Z,40.00
2022-12-20T02:44:01.215Z,40.70
2022-12-20T02:45:01.265Z,39.00
2022-12-20T02:46:01.278Z,39.40
2022-12-20T02:47:01.208Z,36.90
2022-12-20T02:48:01.224Z,38.80
2022-12-20T02:49:01.177Z,44.10
2022-12-20T02:50:01.180Z,44.80
2022-12-20T02:51:01.211Z,39.60
2022-12-20T02:52:01.177Z,38.30
2022-12-20T02:53:01.160Z,34.50
2022-12-20T02:54:01.196Z,37.90
2022-12-20T02:55:01.121Z,39.80
2022-12-20T02:56:02.136Z,38.10
2022-12-20T02:57:01.168Z,35.60
2022-12-20T02:58:01.137Z,36.40
2022-12-20T02:59:01.162Z,37.90
2022-12-20T03:00:01.107Z,44.90
2022-12-20T03:01:01.130Z,49.70
2022-12-20T03:02:01.380Z,53.00
2022-12-20T03:03:01.235Z,53.60
2022-12-20T03:04:33.520Z,38.40
2022-12-20T03:05:01.071Z,38.50
2022-12-20T03:06:01.097Z,40.00
2022-12-20T03:07:01.083Z,35.50
2022-12-20T03:08:01.062Z,36.60
2022-12-20T03:09:02.071Z,42.90
2022-12-20T03:10:01.067Z,36.50
2022-12-20T03:11:01.141Z,35.30
2022-12-20T03:12:01.038Z,35.30
2022-12-20T03:13:01.023Z,45.50
2022-12-20T03:14:01.054Z,43.50
2022-12-20T03:15:01.027Z,34.30
2022-12-20T03:16:01.014Z,35.60
2022-12-20T03:17:01.117Z,37.20
2022-12-20T03:18:01.000Z,41.00
2022-12-20T03:19:01.032Z,35.90
2022-12-20T03:20:01.007Z,33.60
2022-12-20T03:21:00.979Z,37.90
2022-12-20T03:22:00.977Z,37.00
2022-12-20T03:23:00.986Z,34.50
2022-12-20T03:24:01.807Z,40.70
2022-12-20T03:25:00.976Z,40.50
2022-12-20T03:26:01.001Z,38.80
2022-12-20T03:27:00.976Z,38.80
2022-12-20T03:28:00.939Z,44.40
2022-12-20T03:29:00.934Z,47.20
2022-12-20T03:30:00.931Z,40.90
2022-12-20T03:31:00.975Z,47.00
2022-12-20T03:32:00.941Z,41.00
2022-12-20T03:33:00.904Z,47.20
2022-12-20T03:34:00.903Z,36.50
2022-12-20T03:35:00.898Z,38.80
2022-12-20T03:36:00.886Z,44.40
2022-12-20T03:37:00.927Z,43.40
2022-12-20T03:38:00.883Z,42.70
2022-12-20T03:39:00.865Z,47.30
2022-12-20T03:40:00.867Z,47.00
2022-12-20T03:41:00.892Z,47.80
2022-12-20T03:42:00.862Z,51.30
2022-12-20T03:43:00.848Z,43.50
2022-12-20T03:44:00.918Z,45.30
2022-12-20T03:45:00.832Z,41.40
2022-12-20T03:46:00.882Z,40.50
2022-12-20T03:47:00.833Z,47.50
2022-12-20T03:48:00.821Z,39.90
2022-12-20T03:49:00.803Z,45.60
2022-12-20T03:50:00.827Z,49.20
2022-12-20T03:51:00.819Z,50.10
2022-12-20T03:52:00.824Z,47.90
2022-12-20T03:53:00.814Z,39.50
2022-12-20T03:54:00.772Z,43.60
2022-12-20T03:55:00.805Z,44.80
2022-12-20T03:56:00.786Z,44.70
2022-12-20T03:57:00.796Z,37.00
2022-12-20T03:58:00.753Z,38.60
2022-12-20T03:59:00.769Z,38.20
2022-12-20T04:00:00.762Z,45.50
2022-12-20T04:01:00.736Z,34.70
2022-12-20T04:02:00.912Z,42.50
2022-12-20T04:03:00.878Z,36.10
2022-12-20T04:04:00.798Z,40.70
2022-12-20T04:05:00.713Z,35.80
2022-12-20T04:06:00.714Z,45.10
2022-12-20T04:07:00.696Z,34.50
2022-12-20T04:08:00.733Z,37.50
2022-12-20T04:09:00.680Z,38.30
2022-12-20T04:10:00.692Z,40.50
2022-12-20T04:11:00.703Z,40.90
2022-12-20T04:12:00.789Z,38.00
2022-12-20T04:13:00.666Z,40.80
2022-12-20T04:14:00.663Z,40.10
2022-12-20T04:15:00.661Z,38.50
2022-12-20T04:16:01.457Z,37.70
2022-12-20T04:17:00.633Z,38.90
2022-12-20T04:18:00.641Z,41.80
2022-12-20T04:19:00.616Z,40.40
2022-12-20T04:20:00.639Z,40.00
2022-12-20T04:21:00.606Z,36.80
2022-12-20T04:22:05.593Z,41.10
2022-12-20T04:23:01.596Z,44.90
2022-12-20T04:24:00.585Z,47.10
2022-12-20T04:25:00.601Z,42.20
2022-12-20T04:26:00.601Z,41.80
2022-12-20T04:27:00.580Z,37.70
2022-12-20T04:28:00.570Z,40.50
2022-12-20T04:29:00.567Z,37.40
2022-12-20T04:30:00.546Z,42.00
2022-12-20T04:31:00.596Z,43.50
2022-12-20T04:32:00.647Z,42.40
2022-12-20T04:33:00.862Z,38.40
2022-12-20T04:34:00.525Z,35.90
2022-12-20T04:35:00.549Z,37.30
2022-12-20T04:36:00.531Z,39.50
2022-12-20T04:37:00.505Z,39.20
2022-12-20T04:38:00.511Z,41.40
2022-12-20T04:39:00.516Z,37.10
2022-12-20T04:40:00.544Z,39.50
2022-12-20T04:41:00.493Z,42.90
2022-12-20T04:42:00.496Z,41.00
2022-12-20T04:43:00.480Z,43.70
2022-12-20T04:44:00.475Z,41.90
2022-12-20T04:45:00.506Z,39.30
2022-12-20T04:46:01.403Z,39.10
2022-12-20T04:47:00.637Z,40.40
2022-12-20T04:48:14.676Z,39.10
2022-12-20T04:49:02.443Z,36.90
2022-12-20T04:50:00.471Z,41.10
2022-12-20T04:51:00.425Z,37.20
2022-12-20T04:52:00.432Z,40.20
2022-12-20T04:53:00.425Z,43.50
2022-12-20T04:54:00.421Z,35.80
2022-12-20T04:55:00.412Z,38.30
2022-12-20T04:56:00.400Z,39.40
2022-12-20T04:57:00.403Z,43.20
2022-12-20T04:58:07.018Z,38.20
2022-12-20T04:59:02.381Z,35.90
2022-12-20T05:00:00.382Z,36.60
2022-12-20T05:01:00.387Z,34.80
2022-12-20T05:02:00.434Z,39.20
2022-12-20T05:03:00.638Z,41.40
2022-12-20T05:04:00.473Z,33.80
2022-12-20T05:05:00.364Z,32.70
2022-12-20T05:06:00.331Z,37.90
2022-12-20T05:07:00.331Z,36.80
2022-12-20T05:08:00.368Z,33.20
2022-12-20T05:09:00.319Z,34.40
2022-12-20T05:10:00.307Z,36.30
2022-12-20T05:11:00.293Z,32.70
2022-12-20T05:12:00.301Z,32.80
2022-12-20T05:13:05.556Z,33.50
2022-12-20T05:14:02.283Z,36.80
2022-12-20T05:15:01.304Z,37.40
2022-12-20T05:16:00.324Z,37.10
2022-12-20T05:17:00.271Z,39.00
2022-12-20T05:18:00.278Z,40.90
2022-12-20T05:19:00.272Z,40.30
2022-12-20T05:20:00.268Z,43.30
2022-12-20T05:21:00.264Z,47.00
2022-12-20T05:22:00.258Z,48.50
2022-12-20T05:23:00.243Z,64.30
2022-12-20T05:24:00.265Z,62.80
2022-12-20T05:25:00.225Z,68.10
2022-12-20T05:26:00.240Z,57.20
2022-12-20T05:27:00.227Z,41.30
2022-12-20T05:28:00.256Z,40.90
2022-12-20T05:29:00.212Z,37.60
2022-12-20T05:30:00.262Z,44.50
2022-12-20T05:31:00.231Z,38.00
2022-12-20T05:32:00.201Z,40.60
2022-12-20T05:33:00.169Z,37.30
2022-12-20T05:34:00.207Z,32.40
2022-12-20T05:35:00.184Z,33.80
2022-12-20T05:36:00.151Z,35.10
2022-12-20T05:37:00.174Z,37.60
2022-12-20T05:38:00.143Z,42.00
2022-12-20T05:39:04.374Z,36.10
2022-12-20T05:40:01.148Z,35.10
2022-12-20T05:41:00.141Z,35.30
2022-12-20T05:42:00.107Z,41.70
2022-12-20T05:43:00.121Z,41.50
2022-12-20T05:44:00.111Z,41.90
2022-12-20T05:45:00.156Z,47.10
2022-12-20T05:46:00.125Z,44.60
2022-12-20T05:47:00.218Z,46.30
2022-12-20T05:48:00.120Z,46.60
2022-12-20T05:49:00.752Z,49.00
2022-12-20T05:50:00.102Z,51.20
2022-12-20T05:51:01.442Z,54.30
2022-12-20T05:52:00.086Z,51.30
2022-12-20T05:53:02.527Z,50.90
2022-12-20T05:54:01.060Z,59.00
2022-12-20T05:55:00.063Z,48.80
2022-12-20T05:56:01.043Z,54.10
2022-12-20T05:57:00.717Z,57.30
2022-12-20T05:58:00.060Z,53.90
2022-12-20T05:59:01.033Z,53.40
2022-12-20T06:00:00.077Z,56.40
2022-12-20T06:01:00.044Z,59.80
2022-12-20T06:02:00.167Z,61.30
2022-12-20T06:03:00.306Z,55.70
2022-12-20T06:04:00.099Z,56.70
2022-12-20T06:05:00.003Z,56.50
2022-12-20T06:05:59.986Z,48.50
2022-12-20T06:06:59.980Z,50.80
2022-12-20T06:07:59.967Z,58.70
2022-12-20T06:08:59.949Z,56.00
2022-12-20T06:10:00.721Z,54.00
2022-12-20T06:10:59.954Z,59.30
2022-12-20T06:11:59.929Z,57.80
2022-12-20T06:12:59.960Z,57.00
2022-12-20T06:13:59.966Z,54.80
2022-12-20T06:14:59.910Z,59.90
2022-12-20T06:15:59.961Z,64.20
2022-12-20T06:16:59.970Z,53.50
2022-12-20T06:17:59.898Z,52.00
2022-12-20T06:18:59.919Z,51.60
2022-12-20T06:19:59.893Z,60.20
2022-12-20T06:20:59.880Z,62.20
2022-12-20T06:21:59.874Z,55.10
2022-12-20T06:22:59.860Z,51.00
2022-12-20T06:23:59.863Z,49.10
2022-12-20T06:24:59.878Z,51.00
2022-12-20T06:25:59.854Z,57.00
2022-12-20T06:26:59.853Z,57.60
2022-12-20T06:27:59.844Z,48.40
2022-12-20T06:28:59.927Z,47.80
2022-12-20T06:29:59.850Z,49.00
2022-12-20T06:30:59.815Z,54.50
2022-12-20T06:31:59.957Z,47.80
2022-12-20T06:32:59.835Z,45.60
2022-12-20T06:33:59.830Z,47.70
2022-12-20T06:34:59.803Z,49.40
2022-12-20T06:35:59.792Z,51.70
2022-12-20T06:36:59.820Z,44.90
2022-12-20T06:37:59.781Z,49.90
2022-12-20T06:39:03.322Z,49.10
2022-12-20T06:40:00.780Z,41.80
2022-12-20T06:40:59.758Z,39.50
2022-12-20T06:41:59.757Z,40.50
2022-12-20T06:42:59.744Z,44.40
2022-12-20T06:43:59.738Z,45.90
2022-12-20T06:44:59.731Z,47.10
2022-12-20T06:45:59.785Z,51.70
2022-12-20T06:46:59.733Z,48.40
2022-12-20T06:47:59.750Z,45.60
2022-12-20T06:48:59.707Z,37.80
2022-12-20T06:49:59.697Z,44.90
2022-12-20T06:50:59.714Z,39.10
2022-12-20T06:51:59.711Z,49.20
2022-12-20T06:52:59.712Z,41.50
2022-12-20T06:53:59.679Z,45.00
2022-12-20T06:54:59.681Z,43.20
2022-12-20T06:55:59.697Z,37.40
2022-12-20T06:56:59.670Z,37.50
2022-12-20T06:57:59.758Z,39.50
2022-12-20T06:58:59.646Z,37.80
2022-12-20T06:59:59.656Z,39.80
2022-12-20T07:00:59.729Z,44.10
2022-12-20T07:01:59.884Z,43.10
2022-12-20T07:02:59.786Z,36.40
2022-12-20T07:03:59.624Z,39.90
2022-12-20T07:04:59.613Z,38.30
2022-12-20T07:05:59.627Z,36.20
2022-12-20T07:06:59.593Z,42.00
2022-12-20T07:07:59.592Z,38.30
2022-12-20T07:08:59.609Z,34.40
2022-12-20T07:09:59.607Z,35.30
2022-12-20T07:10:59.619Z,38.00
2022-12-20T07:12:00.361Z,37.70
2022-12-20T07:12:59.715Z,36.50
2022-12-20T07:13:59.554Z,34.50
2022-12-20T07:14:59.572Z,33.80
2022-12-20T07:15:59.568Z,38.00
2022-12-20T07:16:59.565Z,36.90
2022-12-20T07:17:59.597Z,34.80
2022-12-20T07:18:59.510Z,37.20
2022-12-20T07:19:59.534Z,45.60
2022-12-20T07:20:59.539Z,36.10
2022-12-20T07:21:59.566Z,36.70
2022-12-20T07:22:59.496Z,36.00
2022-12-20T07:23:59.523Z,34.20
2022-12-20T07:24:59.497Z,35.40
2022-12-20T07:25:59.490Z,33.60
2022-12-20T07:26:59.488Z,37.70
2022-12-20T07:27:59.466Z,42.50
2022-12-20T07:28:59.471Z,45.50
2022-12-20T07:29:59.479Z,39.50
2022-12-20T07:30:59.457Z,51.70
2022-12-20T07:31:59.517Z,48.20
2022-12-20T07:32:59.465Z,62.20
2022-12-20T07:33:59.445Z,85.60
2022-12-20T07:34:59.563Z,70.50
2022-12-20T07:35:59.428Z,65.20
2022-12-20T07:37:07.379Z,71.80
2022-12-20T07:37:59.447Z,68.40
2022-12-20T07:38:59.411Z,56.00
2022-12-20T07:39:59.414Z,52.10
2022-12-20T07:40:59.396Z,48.10
2022-12-20T07:41:59.402Z,73.30
2022-12-20T07:42:59.834Z,78.40
2022-12-20T07:43:59.463Z,90.90
2022-12-20T07:44:59.364Z,85.60
2022-12-20T07:46:00.402Z,83.00
2022-12-20T07:46:59.360Z,87.40
2022-12-20T07:48:04.917Z,75.30
2022-12-20T07:49:01.355Z,82.70
2022-12-20T07:49:59.321Z,85.60
2022-12-20T07:50:59.315Z,85.90
2022-12-20T07:51:59.335Z,74.30
2022-12-20T07:52:59.346Z,63.00
2022-12-20T07:53:59.365Z,59.90
2022-12-20T07:54:59.313Z,51.60
2022-12-20T07:55:59.288Z,46.20
2022-12-20T07:56:59.289Z,40.80
2022-12-20T07:57:59.290Z,38.60
2022-12-20T07:58:59.291Z,58.40
2022-12-20T07:59:59.294Z,45.60
2022-12-20T08:00:59.335Z,46.10
2022-12-20T08:02:04.776Z,47.70
2022-12-20T08:03:01.536Z,92.50
2022-12-20T08:03:59.352Z,100.00
2022-12-20T08:04:59.241Z,90.50
2022-12-20T08:05:59.221Z,91.70
2022-12-20T08:06:59.221Z,91.90
2022-12-20T08:07:59.752Z,92.20
2022-12-20T08:09:00.222Z,84.40
2022-12-20T08:09:59.226Z,77.30
2022-12-20T08:11:00.757Z,83.70
2022-12-20T08:11:59.228Z,72.30
2022-12-20T08:12:59.208Z,66.20
2022-12-20T08:13:59.185Z,73.70
2022-12-20T08:14:59.214Z,64.00
2022-12-20T08:15:59.205Z,62.80
2022-12-20T08:16:59.264Z,58.20
2022-12-20T08:17:59.180Z,48.80
2022-12-20T08:18:59.166Z,52.40
2022-12-20T08:19:59.143Z,51.70
2022-12-20T08:20:59.159Z,48.90
2022-12-20T08:21:59.166Z,54.30
2022-12-20T08:22:59.124Z,54.40
2022-12-20T08:23:59.174Z,51.60
2022-12-20T08:24:59.166Z,43.60
2022-12-20T08:25:59.780Z,56.60
2022-12-20T08:26:59.120Z,56.80
2022-12-20T08:27:59.092Z,55.90
2022-12-20T08:28:59.084Z,53.40
2022-12-20T08:29:59.085Z,53.20
2022-12-20T08:30:59.089Z,50.00
2022-12-20T08:32:00.097Z,47.70
2022-12-20T08:32:59.055Z,44.90
2022-12-20T08:33:59.064Z,48.90
2022-12-20T08:34:59.083Z,47.40
2022-12-20T08:35:59.046Z,41.40
2022-12-20T08:36:59.124Z,42.00
2022-12-20T08:37:59.175Z,51.50
2022-12-20T08:38:59.036Z,46.30
2022-12-20T08:40:00.099Z,45.80
2022-12-20T08:40:59.016Z,42.70
2022-12-20T08:41:59.081Z,43.30
2022-12-20T08:43:00.483Z,42.70
2022-12-20T08:43:58.999Z,45.00
2022-12-20T08:44:58.974Z,44.00
2022-12-20T08:45:59.063Z,40.10
2022-12-20T08:46:58.985Z,40.10
2022-12-20T08:47:59.026Z,35.00
2022-12-20T08:48:58.978Z,34.40
2022-12-20T08:49:58.985Z,40.40
2022-12-20T08:50:59.001Z,38.30
2022-12-20T08:51:59.778Z,43.80
2022-12-20T08:52:58.960Z,38.10
2022-12-20T08:53:58.944Z,35.00
2022-12-20T08:55:01.477Z,34.60
2022-12-20T08:55:58.924Z,39.70
2022-12-20T08:56:58.942Z,39.10
2022-12-20T08:57:58.920Z,40.70
2022-12-20T08:58:58.905Z,34.80
2022-12-20T08:59:58.941Z,36.70
2022-12-20T09:01:04.446Z,41.00
2022-12-20T09:02:01.057Z,38.60
2022-12-20T09:02:59.085Z,41.10
2022-12-20T09:03:59.835Z,39.60
2022-12-20T09:04:58.878Z,40.00
2022-12-20T09:05:58.854Z,38.00
2022-12-20T09:06:58.918Z,37.00
2022-12-20T09:07:58.885Z,40.00
2022-12-20T09:08:58.865Z,41.30
2022-12-20T09:09:58.841Z,41.90
2022-12-20T09:10:58.830Z,38.70
2022-12-20T09:11:58.882Z,41.90
2022-12-20T09:12:58.816Z,40.60
2022-12-20T09:13:58.794Z,41.50
2022-12-20T09:14:58.798Z,38.80
2022-12-20T09:15:58.873Z,37.70
2022-12-20T09:16:58.831Z,37.90
2022-12-20T09:17:58.840Z,36.10
2022-12-20T09:19:04.603Z,38.70
2022-12-20T09:20:00.838Z,38.20
2022-12-20T09:20:58.770Z,35.20
2022-12-20T09:21:58.767Z,36.60
2022-12-20T09:22:58.814Z,30.50
2022-12-20T09:23:58.764Z,34.70
2022-12-20T09:24:58.877Z,38.70
2022-12-20T09:25:58.741Z,36.60
2022-12-20T09:26:58.739Z,30.80
2022-12-20T09:27:58.716Z,31.30
2022-12-20T09:28:58.710Z,34.10
2022-12-20T09:29:58.714Z,33.60
2022-12-20T09:30:58.789Z,30.90
2022-12-20T09:31:58.719Z,35.00
2022-12-20T09:32:58.721Z,29.10
2022-12-20T09:33:59.673Z,28.40
2022-12-20T09:34:58.672Z,27.80
2022-12-20T09:35:58.687Z,27.30
2022-12-20T09:36:58.665Z,29.10
2022-12-20T09:37:58.653Z,33.40
2022-12-20T09:38:58.672Z,32.80
2022-12-20T09:39:58.672Z,30.50
2022-12-20T09:40:58.673Z,31.70
2022-12-20T09:41:58.658Z,29.90
2022-12-20T09:42:58.671Z,29.70
2022-12-20T09:43:58.622Z,25.50
2022-12-20T09:44:58.610Z,25.60
2022-12-20T09:45:58.639Z,30.60
2022-12-20T09:46:58.903Z,30.10
2022-12-20T09:47:58.598Z,25.10
2022-12-20T09:48:58.635Z,25.60
2022-12-20T09:49:58.581Z,25.40
2022-12-20T09:50:58.641Z,26.30
2022-12-20T09:51:58.576Z,26.40
2022-12-20T09:52:58.650Z,28.40
2022-12-20T09:53:58.549Z,30.30
2022-12-20T09:54:58.643Z,30.20
2022-12-20T09:55:59.562Z,30.90
2022-12-20T09:56:58.522Z,30.70
2022-12-20T09:57:58.600Z,30.50
2022-12-20T09:58:58.529Z,31.00
2022-12-20T09:59:58.546Z,30.70
2022-12-20T10:00:58.526Z,27.00
2022-12-20T10:02:13.240Z,29.50
2022-12-20T10:03:08.573Z,28.60
2022-12-20T10:04:00.679Z,28.40
2022-12-20T10:04:58.688Z,33.80
2022-12-20T10:05:58.646Z,31.50
2022-12-20T10:06:59.306Z,30.50
2022-12-20T10:07:58.472Z,29.60
2022-12-20T10:08:58.469Z,31.70
2022-12-20T10:09:58.483Z,30.50
2022-12-20T10:10:58.490Z,33.40
2022-12-20T10:11:58.442Z,33.20
2022-12-20T10:12:58.452Z,29.30
2022-12-20T10:13:58.472Z,29.40
2022-12-20T10:14:58.458Z,32.50
2022-12-20T10:15:58.468Z,29.90
2022-12-20T10:16:58.458Z,35.30
2022-12-20T10:17:58.439Z,32.30
2022-12-20T10:18:58.412Z,43.50
2022-12-20T10:19:59.265Z,36.50
2022-12-20T10:20:58.434Z,30.40
2022-12-20T10:21:58.400Z,32.90
2022-12-20T10:22:58.364Z,31.60
2022-12-20T10:24:00.603Z,30.40
2022-12-20T10:24:58.371Z,32.80
2022-12-20T10:25:58.424Z,30.20
2022-12-20T10:26:58.458Z,31.60
2022-12-20T10:27:58.349Z,33.50
2022-12-20T10:28:58.337Z,32.60
2022-12-20T10:29:58.331Z,31.20
2022-12-20T10:30:58.446Z,33.70
2022-12-20T10:31:58.340Z,34.70
2022-12-20T10:32:58.359Z,33.90
2022-12-20T10:33:58.342Z,31.20
2022-12-20T10:34:58.351Z,30.50
2022-12-20T10:35:58.327Z,31.00
2022-12-20T10:36:59.295Z,32.90
2022-12-20T10:38:07.043Z,29.60
2022-12-20T10:39:00.280Z,29.80
2022-12-20T10:40:00.785Z,33.10
2022-12-20T10:42:00.329Z,31.60
2022-12-20T10:42:58.281Z,30.20
2022-12-20T10:43:58.271Z,32.00
2022-12-20T10:44:58.271Z,29.00
2022-12-20T10:45:58.239Z,29.60
2022-12-20T10:46:58.322Z,31.60
2022-12-20T10:47:58.305Z,33.00
2022-12-20T10:48:58.226Z,34.30
2022-12-20T10:49:58.754Z,29.60
2022-12-20T10:50:58.230Z,32.20
2022-12-20T10:51:58.205Z,28.30
2022-12-20T10:52:58.210Z,26.40
2022-12-20T10:53:58.212Z,25.60
2022-12-20T10:54:58.213Z,25.10
2022-12-20T10:55:58.201Z,23.80
2022-12-20T10:56:58.178Z,23.40
2022-12-20T10:57:58.205Z,24.30
2022-12-20T10:58:58.163Z,23.40
2022-12-20T10:59:58.161Z,22.10
2022-12-20T11:00:58.164Z,24.70
2022-12-20T11:01:58.227Z,22.70
2022-12-20T11:02:58.298Z,22.90
2022-12-20T11:03:58.223Z,21.10
2022-12-20T11:04:58.163Z,22.90
2022-12-20T11:05:58.236Z,19.70
2022-12-20T11:06:58.151Z,25.50
2022-12-20T11:09:01.101Z,24.70
2022-12-20T11:09:59.129Z,25.40
2022-12-20T11:10:58.107Z,23.10
2022-12-20T11:11:58.099Z,23.00
2022-12-20T11:12:58.098Z,22.30
2022-12-20T11:13:58.135Z,20.60
2022-12-20T11:14:58.065Z,19.20
2022-12-20T11:15:58.125Z,18.10
2022-12-20T11:16:58.071Z,19.80
2022-12-20T11:17:58.135Z,18.30
2022-12-20T11:18:58.063Z,16.20
2022-12-20T11:19:58.068Z,15.40
2022-12-20T11:20:58.027Z,20.10
2022-12-20T11:21:58.057Z,31.10
2022-12-20T11:22:58.052Z,20.80
2022-12-20T11:23:58.044Z,16.20
2022-12-20T11:24:58.003Z,14.30
2022-12-20T11:25:58.022Z,14.80
2022-12-20T11:26:58.007Z,14.20
2022-12-20T11:27:58.038Z,15.70
2022-12-20T11:28:57.985Z,15.60
2022-12-20T11:29:58.053Z,18.10
2022-12-20T11:30:58.029Z,18.40
2022-12-20T11:31:58.108Z,18.00
2022-12-20T11:32:58.001Z,18.60
2022-12-20T11:33:57.948Z,18.60
2022-12-20T11:34:57.985Z,15.70
2022-12-20T11:35:57.954Z,14.90
2022-12-20T11:36:57.944Z,14.20
2022-12-20T11:37:58.764Z,15.20
2022-12-20T11:38:57.930Z,14.50
2022-12-20T11:39:57.924Z,14.90
2022-12-20T11:40:57.934Z,11.00
2022-12-20T11:41:57.985Z,10.60
2022-12-20T11:42:58.920Z,10.30
2022-12-20T11:44:23.264Z,9.20
2022-12-20T11:45:08.349Z,11.30
2022-12-20T11:45:59.892Z,12.70
2022-12-20T11:46:57.893Z,10.50
2022-12-20T11:47:57.886Z,9.80
2022-12-20T11:48:57.857Z,10.00
2022-12-20T11:49:57.888Z,9.40
2022-12-20T11:50:57.876Z,10.70
2022-12-20T11:51:57.862Z,10.20
2022-12-20T11:52:57.841Z,10.20
2022-12-20T11:53:57.864Z,11.10
2022-12-20T11:54:57.855Z,9.90
2022-12-20T11:55:57.826Z,11.60
2022-12-20T11:56:57.844Z,12.90
2022-12-20T11:58:20.717Z,13.40
2022-12-20T11:58:59.865Z,14.40
2022-12-20T11:59:57.805Z,25.20
2022-12-20T12:00:57.817Z,23.00
2022-12-20T12:01:57.971Z,21.30
2022-12-20T12:02:58.798Z,44.50
2022-12-20T12:03:58.799Z,61.20
2022-12-20T12:04:57.840Z,35.10
2022-12-20T12:05:57.783Z,27.90
2022-12-20T12:06:57.770Z,18.50
2022-12-20T12:07:57.829Z,23.50
2022-12-20T12:08:57.755Z,24.30
2022-12-20T12:09:57.735Z,21.60
2022-12-20T12:10:57.801Z,23.40
2022-12-20T12:12:07.376Z,21.00
2022-12-20T12:12:59.713Z,18.10
2022-12-20T12:13:57.724Z,19.10
2022-12-20T12:14:57.709Z,18.40
2022-12-20T12:15:57.734Z,19.40
2022-12-20T12:16:57.790Z,25.00
2022-12-20T12:17:57.704Z,24.00
2022-12-20T12:18:57.684Z,24.90
2022-12-20T12:19:57.682Z,23.90
2022-12-20T12:20:58.612Z,21.70
2022-12-20T12:21:57.715Z,23.00
2022-12-20T12:22:57.694Z,18.80
2022-12-20T12:23:57.794Z,20.30
2022-12-20T12:24:57.672Z,20.10
2022-12-20T12:25:57.657Z,19.30
2022-12-20T12:26:57.673Z,14.20
2022-12-20T12:27:57.641Z,12.00
2022-12-20T12:29:02.492Z,15.10
2022-12-20T12:29:58.655Z,16.40
2022-12-20T12:30:57.634Z,18.30
2022-12-20T12:31:57.679Z,19.50
2022-12-20T12:32:57.601Z,18.70
2022-12-20T12:33:57.611Z,18.30
2022-12-20T12:34:57.603Z,16.70
2022-12-20T12:35:57.604Z,17.30
2022-12-20T12:36:57.587Z,18.60
2022-12-20T12:37:57.611Z,18.30
2022-12-20T12:39:02.160Z,17.70
2022-12-20T12:39:59.586Z,17.50
2022-12-20T12:40:57.552Z,17.10
2022-12-20T12:41:57.565Z,14.90
2022-12-20T12:42:57.570Z,14.80
2022-12-20T12:43:57.562Z,11.80
2022-12-20T12:44:57.525Z,10.50
2022-12-20T12:45:57.617Z,10.80
2022-12-20T12:46:57.549Z,11.10
2022-12-20T12:47:57.529Z,9.60
2022-12-20T12:48:58.255Z,8.40
2022-12-20T12:49:57.515Z,8.90
2022-12-20T12:50:57.489Z,9.30
2022-12-20T12:51:57.490Z,8.30
2022-12-20T12:52:57.489Z,8.70
2022-12-20T12:53:57.504Z,8.90
2022-12-20T12:54:57.480Z,9.10